sensor_id;sensor_type;location;lat;lon;timestamp;P1;durP1;ratioP1;P2;durP2;ratioP2
60710;SDS011;46554;48.138;8.420;2023-10-31T00:01:55;0.82;;;0.82;;
60710;SDS011;46554;48.138;8.420;2023-10-31T00:04:21;0.75;;;0.75;;
60710;SDS011;46554;48.138;8.420;2023-10-31T00:06:46;0.85;;;0.85;;
60710;SDS011;46554;48.138;8.420;2023-10-31T00:09:11;1.85;;;1.00;;
60710;SDS011;46554;48.138;8.420;2023-10-31T00:11:37;0.80;;;0.80;;
60710;SDS011;46554;48.138;8.420;2023-10-31T00:14:02;0.85;;;0.85;;
60710;SDS011;46554;48.138;8.420;2023-10-31T00:16:28;0.80;;;0.80;;
60710;SDS011;46554;48.138;8.420;2023-10-31T00:18:53;0.90;;;0.90;;
60710;SDS011;46554;48.138;8.420;2023-10-31T00:21:22;0.50;;;0.50;;
60710;SDS011;46554;48.138;8.420;2023-10-31T00:23:47;0.88;;;0.88;;
60710;SDS011;46554;48.138;8.420;2023-10-31T00:26:14;4.63;;;1.20;;
60710;SDS011;46554;48.138;8.420;2023-10-31T00:28:39;0.80;;;0.80;;
60710;SDS011;46554;48.138;8.420;2023-10-31T00:31:05;1.13;;;1.13;;
60710;SDS011;46554;48.138;8.420;2023-10-31T00:33:32;0.70;;;0.70;;
60710;SDS011;46554;48.138;8.420;2023-10-31T00:35:59;0.55;;;0.55;;
60710;SDS011;46554;48.138;8.420;2023-10-31T00:38:25;0.80;;;0.80;;
60710;SDS011;46554;48.138;8.420;2023-10-31T00:40:53;0.52;;;0.52;;
60710;SDS011;46554;48.138;8.420;2023-10-31T00:43:20;0.85;;;0.80;;
60710;SDS011;46554;48.138;8.420;2023-10-31T00:45:46;0.90;;;0.90;;
60710;SDS011;46554;48.138;8.420;2023-10-31T00:48:14;0.77;;;0.77;;
60710;SDS011;46554;48.138;8.420;2023-10-31T00:50:39;0.70;;;0.70;;
60710;SDS011;46554;48.138;8.420;2023-10-31T00:53:04;0.60;;;0.60;;
60710;SDS011;46554;48.138;8.420;2023-10-31T00:55:32;0.65;;;0.65;;
60710;SDS011;46554;48.138;8.420;2023-10-31T00:57:57;0.80;;;0.80;;
60710;SDS011;46554;48.138;8.420;2023-10-31T01:00:23;0.80;;;0.70;;
60710;SDS011;46554;48.138;8.420;2023-10-31T01:02:48;0.60;;;0.60;;
60710;SDS011;46554;48.138;8.420;2023-10-31T01:05:13;0.68;;;0.68;;
60710;SDS011;46554;48.138;8.420;2023-10-31T01:07:39;0.73;;;0.70;;
60710;SDS011;46554;48.138;8.420;2023-10-31T01:10:04;0.55;;;0.55;;
60710;SDS011;46554;48.138;8.420;2023-10-31T01:12:30;0.75;;;0.75;;
60710;SDS011;46554;48.138;8.420;2023-10-31T01:14:57;0.50;;;0.50;;
60710;SDS011;46554;48.138;8.420;2023-10-31T01:17:23;0.50;;;0.50;;
60710;SDS011;46554;48.138;8.420;2023-10-31T01:19:48;0.50;;;0.50;;
60710;SDS011;46554;48.138;8.420;2023-10-31T01:22:13;0.50;;;0.50;;
60710;SDS011;46554;48.138;8.420;2023-10-31T01:24:39;0.60;;;0.60;;
60710;SDS011;46554;48.138;8.420;2023-10-31T01:27:04;0.80;;;0.80;;
60710;SDS011;46554;48.138;8.420;2023-10-31T01:29:32;0.52;;;0.52;;
60710;SDS011;46554;48.138;8.420;2023-10-31T01:31:58;0.60;;;0.60;;
60710;SDS011;46554;48.138;8.420;2023-10-31T01:34:23;1.52;;;0.73;;
60710;SDS011;46554;48.138;8.420;2023-10-31T01:36:51;2.65;;;0.73;;
60710;SDS011;46554;48.138;8.420;2023-10-31T01:39:16;0.68;;;0.68;;
60710;SDS011;46554;48.138;8.420;2023-10-31T01:41:44;0.70;;;0.70;;
60710;SDS011;46554;48.138;8.420;2023-10-31T01:44:10;0.50;;;0.50;;
60710;SDS011;46554;48.138;8.420;2023-10-31T01:46:35;0.40;;;0.40;;
60710;SDS011;46554;48.138;8.420;2023-10-31T01:49:01;0.60;;;0.60;;
60710;SDS011;46554;48.138;8.420;2023-10-31T01:51:27;0.50;;;0.50;;
60710;SDS011;46554;48.138;8.420;2023-10-31T01:53:57;0.65;;;0.65;;
60710;SDS011;46554;48.138;8.420;2023-10-31T01:56:23;0.98;;;0.98;;
60710;SDS011;46554;48.138;8.420;2023-10-31T01:58:49;0.47;;;0.47;;
60710;SDS011;46554;48.138;8.420;2023-10-31T02:01:14;0.60;;;0.60;;
60710;SDS011;46554;48.138;8.420;2023-10-31T02:03:40;0.50;;;0.50;;
60710;SDS011;46554;48.138;8.420;2023-10-31T02:06:07;0.63;;;0.63;;
60710;SDS011;46554;48.138;8.420;2023-10-31T02:08:35;0.40;;;0.40;;
60710;SDS011;46554;48.138;8.420;2023-10-31T02:11:03;0.50;;;0.50;;
60710;SDS011;46554;48.138;8.420;2023-10-31T02:13:30;0.60;;;0.60;;
60710;SDS011;46554;48.138;8.420;2023-10-31T02:15:56;0.60;;;0.60;;
60710;SDS011;46554;48.138;8.420;2023-10-31T02:18:21;0.50;;;0.50;;
60710;SDS011;46554;48.138;8.420;2023-10-31T02:20:49;0.40;;;0.40;;
60710;SDS011;46554;48.138;8.420;2023-10-31T02:23:17;0.47;;;0.47;;
60710;SDS011;46554;48.138;8.420;2023-10-31T02:28:10;0.47;;;0.47;;
60710;SDS011;46554;48.138;8.420;2023-10-31T02:30:36;0.65;;;0.65;;
60710;SDS011;46554;48.138;8.420;2023-10-31T02:33:01;0.68;;;0.68;;
60710;SDS011;46554;48.138;8.420;2023-10-31T02:35:27;0.40;;;0.40;;
60710;SDS011;46554;48.138;8.420;2023-10-31T02:37:52;0.60;;;0.60;;
60710;SDS011;46554;48.138;8.420;2023-10-31T02:40:18;0.93;;;0.93;;
60710;SDS011;46554;48.138;8.420;2023-10-31T02:42:46;0.50;;;0.50;;
60710;SDS011;46554;48.138;8.420;2023-10-31T02:45:14;0.30;;;0.30;;
60710;SDS011;46554;48.138;8.420;2023-10-31T02:47:39;0.30;;;0.30;;
60710;SDS011;46554;48.138;8.420;2023-10-31T02:50:07;0.40;;;0.40;;
60710;SDS011;46554;48.138;8.420;2023-10-31T03:02:39;0.50;;;0.50;;
60710;SDS011;46554;48.138;8.420;2023-10-31T03:05:05;0.40;;;0.40;;
60710;SDS011;46554;48.138;8.420;2023-10-31T03:07:31;0.38;;;0.38;;
60710;SDS011;46554;48.138;8.420;2023-10-31T03:09:56;0.50;;;0.50;;
60710;SDS011;46554;48.138;8.420;2023-10-31T03:12:23;0.90;;;0.90;;
60710;SDS011;46554;48.138;8.420;2023-10-31T03:14:49;0.80;;;0.80;;
60710;SDS011;46554;48.138;8.420;2023-10-31T03:17:14;0.90;;;0.90;;
60710;SDS011;46554;48.138;8.420;2023-10-31T03:19:42;1.50;;;1.50;;
60710;SDS011;46554;48.138;8.420;2023-10-31T03:22:08;1.40;;;1.40;;
60710;SDS011;46554;48.138;8.420;2023-10-31T03:24:34;1.58;;;1.58;;
60710;SDS011;46554;48.138;8.420;2023-10-31T03:26:59;1.40;;;1.40;;
60710;SDS011;46554;48.138;8.420;2023-10-31T03:29:25;2.00;;;1.90;;
60710;SDS011;46554;48.138;8.420;2023-10-31T03:31:50;1.95;;;1.90;;
60710;SDS011;46554;48.138;8.420;2023-10-31T03:34:16;2.95;;;2.85;;
60710;SDS011;46554;48.138;8.420;2023-10-31T03:36:41;3.65;;;3.55;;
60710;SDS011;46554;48.138;8.420;2023-10-31T03:39:06;3.90;;;3.78;;
60710;SDS011;46554;48.138;8.420;2023-10-31T03:41:32;4.32;;;4.13;;
60710;SDS011;46554;48.138;8.420;2023-10-31T03:43:57;6.30;;;6.00;;
60710;SDS011;46554;48.138;8.420;2023-10-31T03:46:22;5.00;;;4.80;;
60710;SDS011;46554;48.138;8.420;2023-10-31T03:48:48;5.40;;;5.20;;
60710;SDS011;46554;48.138;8.420;2023-10-31T03:51:13;2.53;;;2.42;;
60710;SDS011;46554;48.138;8.420;2023-10-31T03:53:41;2.13;;;2.10;;
60710;SDS011;46554;48.138;8.420;2023-10-31T03:56:06;1.95;;;1.95;;
60710;SDS011;46554;48.138;8.420;2023-10-31T03:58:34;2.17;;;2.08;;
60710;SDS011;46554;48.138;8.420;2023-10-31T04:01:02;2.25;;;2.15;;
60710;SDS011;46554;48.138;8.420;2023-10-31T04:03:27;1.90;;;1.90;;
60710;SDS011;46554;48.138;8.420;2023-10-31T04:05:53;1.92;;;1.92;;
60710;SDS011;46554;48.138;8.420;2023-10-31T04:08:19;1.60;;;1.60;;
60710;SDS011;46554;48.138;8.420;2023-10-31T04:10:44;1.38;;;1.38;;
60710;SDS011;46554;48.138;8.420;2023-10-31T04:13:10;1.67;;;1.67;;
60710;SDS011;46554;48.138;8.420;2023-10-31T04:15:35;6.30;;;3.30;;
60710;SDS011;46554;48.138;8.420;2023-10-31T04:18:04;1.08;;;1.08;;
60710;SDS011;46554;48.138;8.420;2023-10-31T04:20:29;1.60;;;1.35;;
60710;SDS011;46554;48.138;8.420;2023-10-31T04:22:57;1.05;;;1.05;;
60710;SDS011;46554;48.138;8.420;2023-10-31T04:25:22;0.98;;;0.98;;
60710;SDS011;46554;48.138;8.420;2023-10-31T04:27:48;1.02;;;1.02;;
60710;SDS011;46554;48.138;8.420;2023-10-31T04:30:18;1.10;;;1.10;;
60710;SDS011;46554;48.138;8.420;2023-10-31T04:32:44;1.23;;;1.23;;
60710;SDS011;46554;48.138;8.420;2023-10-31T04:35:10;0.90;;;0.90;;
60710;SDS011;46554;48.138;8.420;2023-10-31T04:37:35;1.60;;;1.60;;
60710;SDS011;46554;48.138;8.420;2023-10-31T04:40:01;1.40;;;1.40;;
60710;SDS011;46554;48.138;8.420;2023-10-31T04:42:26;1.15;;;1.15;;
60710;SDS011;46554;48.138;8.420;2023-10-31T04:44:52;1.05;;;1.05;;
60710;SDS011;46554;48.138;8.420;2023-10-31T04:47:17;1.65;;;1.65;;
60710;SDS011;46554;48.138;8.420;2023-10-31T04:49:42;1.55;;;1.55;;
60710;SDS011;46554;48.138;8.420;2023-10-31T04:52:08;1.73;;;1.73;;
60710;SDS011;46554;48.138;8.420;2023-10-31T04:54:33;4.93;;;1.70;;
60710;SDS011;46554;48.138;8.420;2023-10-31T04:56:59;1.80;;;1.80;;
60710;SDS011;46554;48.138;8.420;2023-10-31T04:59:24;1.58;;;1.58;;
60710;SDS011;46554;48.138;8.420;2023-10-31T05:01:50;1.73;;;1.73;;
60710;SDS011;46554;48.138;8.420;2023-10-31T05:04:16;2.40;;;2.30;;
60710;SDS011;46554;48.138;8.420;2023-10-31T05:06:42;2.20;;;2.10;;
60710;SDS011;46554;48.138;8.420;2023-10-31T05:09:07;2.30;;;2.20;;
60710;SDS011;46554;48.138;8.420;2023-10-31T05:11:38;2.55;;;2.45;;
60710;SDS011;46554;48.138;8.420;2023-10-31T05:14:03;1.95;;;1.95;;
60710;SDS011;46554;48.138;8.420;2023-10-31T05:16:29;2.30;;;2.20;;
60710;SDS011;46554;48.138;8.420;2023-10-31T05:18:54;1.80;;;1.80;;
60710;SDS011;46554;48.138;8.420;2023-10-31T05:21:20;2.13;;;2.03;;
60710;SDS011;46554;48.138;8.420;2023-10-31T05:23:46;1.92;;;1.92;;
60710;SDS011;46554;48.138;8.420;2023-10-31T05:26:11;1.70;;;1.70;;
60710;SDS011;46554;48.138;8.420;2023-10-31T05:28:36;3.08;;;2.97;;
60710;SDS011;46554;48.138;8.420;2023-10-31T05:31:02;1.52;;;1.52;;
60710;SDS011;46554;48.138;8.420;2023-10-31T05:33:28;1.70;;;1.70;;
60710;SDS011;46554;48.138;8.420;2023-10-31T05:35:53;2.05;;;2.05;;
60710;SDS011;46554;48.138;8.420;2023-10-31T05:38:19;1.40;;;1.40;;
60710;SDS011;46554;48.138;8.420;2023-10-31T05:40:44;1.35;;;1.35;;
60710;SDS011;46554;48.138;8.420;2023-10-31T05:43:10;1.50;;;1.50;;
60710;SDS011;46554;48.138;8.420;2023-10-31T05:45:35;1.55;;;1.55;;
60710;SDS011;46554;48.138;8.420;2023-10-31T05:48:01;1.88;;;1.80;;
60710;SDS011;46554;48.138;8.420;2023-10-31T05:50:26;1.80;;;1.70;;
60710;SDS011;46554;48.138;8.420;2023-10-31T05:52:51;1.58;;;1.52;;
60710;SDS011;46554;48.138;8.420;2023-10-31T05:55:17;1.80;;;1.70;;
60710;SDS011;46554;48.138;8.420;2023-10-31T05:57:42;1.23;;;1.23;;
60710;SDS011;46554;48.138;8.420;2023-10-31T06:00:08;1.58;;;1.58;;
60710;SDS011;46554;48.138;8.420;2023-10-31T06:02:33;2.10;;;2.00;;
60710;SDS011;46554;48.138;8.420;2023-10-31T06:04:59;1.80;;;1.80;;
60710;SDS011;46554;48.138;8.420;2023-10-31T06:07:27;2.13;;;2.03;;
60710;SDS011;46554;48.138;8.420;2023-10-31T06:09:54;2.22;;;2.13;;
60710;SDS011;46554;48.138;8.420;2023-10-31T06:12:20;2.10;;;2.00;;
60710;SDS011;46554;48.138;8.420;2023-10-31T06:14:45;1.70;;;1.70;;
60710;SDS011;46554;48.138;8.420;2023-10-31T06:17:10;2.45;;;2.13;;
60710;SDS011;46554;48.138;8.420;2023-10-31T06:19:36;1.92;;;1.90;;
60710;SDS011;46554;48.138;8.420;2023-10-31T06:22:10;2.10;;;2.00;;
60710;SDS011;46554;48.138;8.420;2023-10-31T06:24:39;2.40;;;2.25;;
60710;SDS011;46554;48.138;8.420;2023-10-31T06:27:05;4.18;;;3.83;;
60710;SDS011;46554;48.138;8.420;2023-10-31T06:29:31;2.25;;;2.15;;
60710;SDS011;46554;48.138;8.420;2023-10-31T06:31:56;2.20;;;2.10;;
60710;SDS011;46554;48.138;8.420;2023-10-31T06:34:21;2.25;;;2.15;;
60710;SDS011;46554;48.138;8.420;2023-10-31T06:36:47;3.30;;;3.00;;
60710;SDS011;46554;48.138;8.420;2023-10-31T06:39:12;2.30;;;2.20;;
60710;SDS011;46554;48.138;8.420;2023-10-31T06:41:37;2.03;;;1.92;;
60710;SDS011;46554;48.138;8.420;2023-10-31T06:44:03;1.90;;;1.80;;
60710;SDS011;46554;48.138;8.420;2023-10-31T06:46:28;1.88;;;1.77;;
60710;SDS011;46554;48.138;8.420;2023-10-31T06:48:54;1.73;;;1.73;;
60710;SDS011;46554;48.138;8.420;2023-10-31T06:51:19;1.70;;;1.70;;
60710;SDS011;46554;48.138;8.420;2023-10-31T06:53:45;2.50;;;2.42;;
60710;SDS011;46554;48.138;8.420;2023-10-31T06:56:12;2.42;;;2.33;;
60710;SDS011;46554;48.138;8.420;2023-10-31T06:58:38;3.53;;;3.33;;
60710;SDS011;46554;48.138;8.420;2023-10-31T07:01:03;2.60;;;2.50;;
60710;SDS011;46554;48.138;8.420;2023-10-31T07:03:28;3.05;;;2.95;;
60710;SDS011;46554;48.138;8.420;2023-10-31T07:05:57;9.73;;;2.70;;
60710;SDS011;46554;48.138;8.420;2023-10-31T07:08:22;3.08;;;2.20;;
60710;SDS011;46554;48.138;8.420;2023-10-31T07:10:48;3.03;;;1.77;;
60710;SDS011;46554;48.138;8.420;2023-10-31T07:13:13;1.92;;;1.60;;
60710;SDS011;46554;48.138;8.420;2023-10-31T07:15:39;1.23;;;1.23;;
60710;SDS011;46554;48.138;8.420;2023-10-31T07:18:05;0.80;;;0.80;;
60710;SDS011;46554;48.138;8.420;2023-10-31T07:20:33;10.52;;;2.38;;
60710;SDS011;46554;48.138;8.420;2023-10-31T07:22:58;0.80;;;0.80;;
60710;SDS011;46554;48.138;8.420;2023-10-31T07:25:26;1.00;;;1.00;;
60710;SDS011;46554;48.138;8.420;2023-10-31T07:27:51;2.15;;;1.45;;
60710;SDS011;46554;48.138;8.420;2023-10-31T07:30:16;0.80;;;0.80;;
60710;SDS011;46554;48.138;8.420;2023-10-31T07:32:42;2.33;;;1.52;;
60710;SDS011;46554;48.138;8.420;2023-10-31T07:35:07;1.88;;;1.77;;
60710;SDS011;46554;48.138;8.420;2023-10-31T07:37:33;0.88;;;0.88;;
60710;SDS011;46554;48.138;8.420;2023-10-31T07:39:58;1.55;;;1.42;;
60710;SDS011;46554;48.138;8.420;2023-10-31T07:42:26;0.88;;;0.88;;
60710;SDS011;46554;48.138;8.420;2023-10-31T07:44:51;0.88;;;0.88;;
60710;SDS011;46554;48.138;8.420;2023-10-31T07:47:16;1.90;;;1.80;;
60710;SDS011;46554;48.138;8.420;2023-10-31T07:49:42;1.38;;;1.27;;
60710;SDS011;46554;48.138;8.420;2023-10-31T07:52:07;2.85;;;1.92;;
60710;SDS011;46554;48.138;8.420;2023-10-31T07:54:33;3.92;;;1.48;;
60710;SDS011;46554;48.138;8.420;2023-10-31T07:57:00;1.42;;;1.42;;
60710;SDS011;46554;48.138;8.420;2023-10-31T07:59:26;1.13;;;1.13;;
60710;SDS011;46554;48.138;8.420;2023-10-31T08:01:52;1.60;;;1.50;;
60710;SDS011;46554;48.138;8.420;2023-10-31T08:04:17;1.50;;;1.50;;
60710;SDS011;46554;48.138;8.420;2023-10-31T08:06:45;1.40;;;1.38;;
60710;SDS011;46554;48.138;8.420;2023-10-31T08:09:10;1.42;;;1.42;;
60710;SDS011;46554;48.138;8.420;2023-10-31T08:11:36;1.45;;;1.35;;
60710;SDS011;46554;48.138;8.420;2023-10-31T08:14:02;0.93;;;0.93;;
60710;SDS011;46554;48.138;8.420;2023-10-31T08:16:27;1.35;;;1.35;;
60710;SDS011;46554;48.138;8.420;2023-10-31T08:18:55;2.10;;;0.82;;
60710;SDS011;46554;48.138;8.420;2023-10-31T08:21:21;0.55;;;0.55;;
60710;SDS011;46554;48.138;8.420;2023-10-31T08:23:46;1.15;;;1.15;;
60710;SDS011;46554;48.138;8.420;2023-10-31T08:26:12;4.90;;;0.85;;
60710;SDS011;46554;48.138;8.420;2023-10-31T08:28:40;1.20;;;1.20;;
60710;SDS011;46554;48.138;8.420;2023-10-31T08:31:06;1.13;;;1.13;;
60710;SDS011;46554;48.138;8.420;2023-10-31T08:33:31;1.00;;;1.00;;
60710;SDS011;46554;48.138;8.420;2023-10-31T08:35:57;0.60;;;0.60;;
60710;SDS011;46554;48.138;8.420;2023-10-31T08:38:22;3.15;;;1.25;;
60710;SDS011;46554;48.138;8.420;2023-10-31T08:40:48;0.70;;;0.70;;
60710;SDS011;46554;48.138;8.420;2023-10-31T08:43:13;1.40;;;0.95;;
60710;SDS011;46554;48.138;8.420;2023-10-31T08:45:39;0.95;;;0.95;;
60710;SDS011;46554;48.138;8.420;2023-10-31T08:48:04;0.80;;;0.80;;
60710;SDS011;46554;48.138;8.420;2023-10-31T08:50:30;0.85;;;0.85;;
60710;SDS011;46554;48.138;8.420;2023-10-31T08:52:55;0.70;;;0.70;;
60710;SDS011;46554;48.138;8.420;2023-10-31T08:55:20;0.60;;;0.60;;
60710;SDS011;46554;48.138;8.420;2023-10-31T08:57:46;12.50;;;1.65;;
60710;SDS011;46554;48.138;8.420;2023-10-31T09:00:11;2.05;;;1.00;;
60710;SDS011;46554;48.138;8.420;2023-10-31T09:02:39;0.70;;;0.70;;
60710;SDS011;46554;48.138;8.420;2023-10-31T09:05:04;0.60;;;0.60;;
60710;SDS011;46554;48.138;8.420;2023-10-31T09:07:30;0.70;;;0.70;;
60710;SDS011;46554;48.138;8.420;2023-10-31T09:09:56;0.52;;;0.52;;
60710;SDS011;46554;48.138;8.420;2023-10-31T09:12:21;0.80;;;0.80;;
60710;SDS011;46554;48.138;8.420;2023-10-31T09:14:46;0.63;;;0.63;;
60710;SDS011;46554;48.138;8.420;2023-10-31T09:17:12;1.85;;;1.00;;
60710;SDS011;46554;48.138;8.420;2023-10-31T09:19:38;1.70;;;1.27;;
60710;SDS011;46554;48.138;8.420;2023-10-31T09:22:03;1.38;;;1.20;;
60710;SDS011;46554;48.138;8.420;2023-10-31T09:24:28;0.90;;;0.90;;
60710;SDS011;46554;48.138;8.420;2023-10-31T09:26:56;0.90;;;0.90;;
60710;SDS011;46554;48.138;8.420;2023-10-31T09:29:22;0.50;;;0.50;;
60710;SDS011;46554;48.138;8.420;2023-10-31T09:31:49;0.60;;;0.60;;
60710;SDS011;46554;48.138;8.420;2023-10-31T09:34:15;0.70;;;0.70;;
60710;SDS011;46554;48.138;8.420;2023-10-31T09:36:43;0.77;;;0.77;;
60710;SDS011;46554;48.138;8.420;2023-10-31T09:39:08;0.65;;;0.65;;
60710;SDS011;46554;48.138;8.420;2023-10-31T09:41:33;0.80;;;0.80;;
60710;SDS011;46554;48.138;8.420;2023-10-31T09:44:01;0.85;;;0.85;;
60710;SDS011;46554;48.138;8.420;2023-10-31T09:46:29;0.88;;;0.88;;
60710;SDS011;46554;48.138;8.420;2023-10-31T09:48:55;1.70;;;1.70;;
60710;SDS011;46554;48.138;8.420;2023-10-31T09:51:21;2.75;;;2.65;;
60710;SDS011;46554;48.138;8.420;2023-10-31T09:53:47;1.15;;;1.15;;
60710;SDS011;46554;48.138;8.420;2023-10-31T09:56:12;1.30;;;1.30;;
60710;SDS011;46554;48.138;8.420;2023-10-31T09:58:39;2.70;;;2.60;;
60710;SDS011;46554;48.138;8.420;2023-10-31T10:01:06;2.63;;;2.50;;
60710;SDS011;46554;48.138;8.420;2023-10-31T10:03:31;3.30;;;1.80;;
60710;SDS011;46554;48.138;8.420;2023-10-31T10:06:01;1.05;;;1.05;;
60710;SDS011;46554;48.138;8.420;2023-10-31T10:08:27;0.70;;;0.70;;
60710;SDS011;46554;48.138;8.420;2023-10-31T10:10:56;0.80;;;0.80;;
60710;SDS011;46554;48.138;8.420;2023-10-31T10:13:21;1.85;;;0.75;;
60710;SDS011;46554;48.138;8.420;2023-10-31T10:15:47;0.90;;;0.90;;
60710;SDS011;46554;48.138;8.420;2023-10-31T10:21:05;0.75;;;0.75;;
60710;SDS011;46554;48.138;8.420;2023-10-31T10:23:31;0.95;;;0.93;;
60710;SDS011;46554;48.138;8.420;2023-10-31T10:25:58;0.60;;;0.60;;
60710;SDS011;46554;48.138;8.420;2023-10-31T10:28:24;0.70;;;0.70;;
60710;SDS011;46554;48.138;8.420;2023-10-31T10:30:50;0.60;;;0.60;;
60710;SDS011;46554;48.138;8.420;2023-10-31T10:33:19;0.50;;;0.50;;
60710;SDS011;46554;48.138;8.420;2023-10-31T10:35:45;0.60;;;0.60;;
60710;SDS011;46554;48.138;8.420;2023-10-31T10:38:14;3.58;;;0.98;;
60710;SDS011;46554;48.138;8.420;2023-10-31T10:40:41;1.00;;;1.00;;
60710;SDS011;46554;48.138;8.420;2023-10-31T10:43:10;0.57;;;0.57;;
60710;SDS011;46554;48.138;8.420;2023-10-31T10:45:38;0.70;;;0.70;;
60710;SDS011;46554;48.138;8.420;2023-10-31T10:48:08;1.08;;;1.08;;
60710;SDS011;46554;48.138;8.420;2023-10-31T10:50:37;1.73;;;1.50;;
60710;SDS011;46554;48.138;8.420;2023-10-31T10:55:34;2.15;;;2.05;;
60710;SDS011;46554;48.138;8.420;2023-10-31T10:58:05;1.30;;;1.30;;
60710;SDS011;46554;48.138;8.420;2023-10-31T11:00:34;1.45;;;1.45;;
60710;SDS011;46554;48.138;8.420;2023-10-31T11:03:01;1.55;;;1.55;;
60710;SDS011;46554;48.138;8.420;2023-10-31T11:05:27;1.67;;;1.60;;
60710;SDS011;46554;48.138;8.420;2023-10-31T11:07:52;1.58;;;1.58;;
60710;SDS011;46554;48.138;8.420;2023-10-31T11:10:20;1.17;;;1.17;;
60710;SDS011;46554;48.138;8.420;2023-10-31T11:12:46;1.20;;;1.20;;
60710;SDS011;46554;48.138;8.420;2023-10-31T11:15:13;1.48;;;1.48;;
60710;SDS011;46554;48.138;8.420;2023-10-31T11:17:40;2.75;;;1.77;;
60710;SDS011;46554;48.138;8.420;2023-10-31T11:20:09;2.83;;;2.72;;
60710;SDS011;46554;48.138;8.420;2023-10-31T11:22:39;0.93;;;0.93;;
60710;SDS011;46554;48.138;8.420;2023-10-31T11:25:09;2.20;;;2.10;;
60710;SDS011;46554;48.138;8.420;2023-10-31T11:27:37;0.85;;;0.85;;
60710;SDS011;46554;48.138;8.420;2023-10-31T11:30:22;2.10;;;2.00;;
60710;SDS011;46554;48.138;8.420;2023-10-31T11:32:52;1.35;;;1.35;;
60710;SDS011;46554;48.138;8.420;2023-10-31T11:35:18;0.80;;;0.80;;
60710;SDS011;46554;48.138;8.420;2023-10-31T11:37:47;0.52;;;0.52;;
60710;SDS011;46554;48.138;8.420;2023-10-31T11:43:04;0.60;;;0.60;;
60710;SDS011;46554;48.138;8.420;2023-10-31T11:45:42;0.75;;;0.75;;
60710;SDS011;46554;48.138;8.420;2023-10-31T11:48:13;0.90;;;0.90;;
60710;SDS011;46554;48.138;8.420;2023-10-31T11:50:38;0.60;;;0.60;;
60710;SDS011;46554;48.138;8.420;2023-10-31T11:53:11;0.77;;;0.77;;
60710;SDS011;46554;48.138;8.420;2023-10-31T11:55:41;4.83;;;1.37;;
60710;SDS011;46554;48.138;8.420;2023-10-31T11:58:20;0.70;;;0.70;;
60710;SDS011;46554;48.138;8.420;2023-10-31T12:01:01;0.93;;;0.93;;
60710;SDS011;46554;48.138;8.420;2023-10-31T12:03:28;1.48;;;0.80;;
60710;SDS011;46554;48.138;8.420;2023-10-31T12:06:14;0.60;;;0.60;;
60710;SDS011;46554;48.138;8.420;2023-10-31T12:08:41;0.93;;;0.93;;
60710;SDS011;46554;48.138;8.420;2023-10-31T12:11:08;1.00;;;1.00;;
60710;SDS011;46554;48.138;8.420;2023-10-31T12:13:40;0.77;;;0.77;;
60710;SDS011;46554;48.138;8.420;2023-10-31T12:16:06;1.13;;;1.13;;
60710;SDS011;46554;48.138;8.420;2023-10-31T12:18:33;1.30;;;1.20;;
60710;SDS011;46554;48.138;8.420;2023-10-31T12:21:01;1.02;;;1.02;;
60710;SDS011;46554;48.138;8.420;2023-10-31T12:23:29;0.73;;;0.73;;
60710;SDS011;46554;48.138;8.420;2023-10-31T12:25:55;1.15;;;1.15;;
60710;SDS011;46554;48.138;8.420;2023-10-31T12:28:22;2.08;;;1.58;;
60710;SDS011;46554;48.138;8.420;2023-10-31T12:30:52;1.95;;;1.85;;
60710;SDS011;46554;48.138;8.420;2023-10-31T12:33:25;1.48;;;1.48;;
60710;SDS011;46554;48.138;8.420;2023-10-31T12:35:58;1.17;;;1.17;;
60710;SDS011;46554;48.138;8.420;2023-10-31T12:38:24;4.82;;;1.33;;
60710;SDS011;46554;48.138;8.420;2023-10-31T12:40:52;1.20;;;1.20;;
60710;SDS011;46554;48.138;8.420;2023-10-31T12:43:18;1.45;;;1.35;;
60710;SDS011;46554;48.138;8.420;2023-10-31T12:45:43;1.30;;;1.30;;
60710;SDS011;46554;48.138;8.420;2023-10-31T12:48:11;0.98;;;0.98;;
60710;SDS011;46554;48.138;8.420;2023-10-31T12:50:37;1.08;;;1.08;;
60710;SDS011;46554;48.138;8.420;2023-10-31T12:53:05;1.00;;;1.00;;
60710;SDS011;46554;48.138;8.420;2023-10-31T12:55:36;1.17;;;1.17;;
60710;SDS011;46554;48.138;8.420;2023-10-31T12:58:06;1.05;;;1.05;;
60710;SDS011;46554;48.138;8.420;2023-10-31T13:00:32;1.25;;;1.25;;
60710;SDS011;46554;48.138;8.420;2023-10-31T13:02:59;1.42;;;1.13;;
60710;SDS011;46554;48.138;8.420;2023-10-31T13:05:31;1.48;;;1.45;;
60710;SDS011;46554;48.138;8.420;2023-10-31T13:07:58;2.08;;;1.33;;
60710;SDS011;46554;48.138;8.420;2023-10-31T13:10:26;1.17;;;1.15;;
60710;SDS011;46554;48.138;8.420;2023-10-31T13:12:52;1.45;;;1.35;;
60710;SDS011;46554;48.138;8.420;2023-10-31T13:15:22;1.35;;;1.35;;
60710;SDS011;46554;48.138;8.420;2023-10-31T13:17:49;1.10;;;1.10;;
60710;SDS011;46554;48.138;8.420;2023-10-31T13:20:15;1.58;;;1.48;;
60710;SDS011;46554;48.138;8.420;2023-10-31T13:22:42;2.28;;;2.17;;
60710;SDS011;46554;48.138;8.420;2023-10-31T13:25:08;1.38;;;1.38;;
60710;SDS011;46554;48.138;8.420;2023-10-31T13:27:44;4.00;;;1.08;;
60710;SDS011;46554;48.138;8.420;2023-10-31T13:30:12;0.70;;;0.70;;
60710;SDS011;46554;48.138;8.420;2023-10-31T13:32:38;1.17;;;1.17;;
60710;SDS011;46554;48.138;8.420;2023-10-31T13:35:07;2.35;;;2.25;;
60710;SDS011;46554;48.138;8.420;2023-10-31T13:37:35;2.20;;;2.10;;
60710;SDS011;46554;48.138;8.420;2023-10-31T13:40:01;1.70;;;1.70;;
60710;SDS011;46554;48.138;8.420;2023-10-31T13:42:27;1.52;;;1.42;;
60710;SDS011;46554;48.138;8.420;2023-10-31T13:44:53;1.38;;;1.33;;
60710;SDS011;46554;48.138;8.420;2023-10-31T13:47:19;3.35;;;2.42;;
60710;SDS011;46554;48.138;8.420;2023-10-31T13:49:44;1.67;;;1.63;;
60710;SDS011;46554;48.138;8.420;2023-10-31T13:52:10;1.27;;;1.27;;
60710;SDS011;46554;48.138;8.420;2023-10-31T13:54:35;2.60;;;2.50;;
60710;SDS011;46554;48.138;8.420;2023-10-31T13:57:03;2.10;;;2.00;;
60710;SDS011;46554;48.138;8.420;2023-10-31T13:59:28;1.77;;;1.77;;
60710;SDS011;46554;48.138;8.420;2023-10-31T14:01:54;1.88;;;1.88;;
60710;SDS011;46554;48.138;8.420;2023-10-31T14:04:19;0.85;;;0.85;;
60710;SDS011;46554;48.138;8.420;2023-10-31T14:06:45;0.90;;;0.90;;
60710;SDS011;46554;48.138;8.420;2023-10-31T14:09:11;0.73;;;0.73;;
60710;SDS011;46554;48.138;8.420;2023-10-31T14:14:06;0.68;;;0.68;;
60710;SDS011;46554;48.138;8.420;2023-10-31T14:16:34;2.83;;;1.25;;
60710;SDS011;46554;48.138;8.420;2023-10-31T14:19:03;1.58;;;1.58;;
60710;SDS011;46554;48.138;8.420;2023-10-31T14:21:29;1.05;;;1.05;;
60710;SDS011;46554;48.138;8.420;2023-10-31T14:23:54;0.60;;;0.60;;
60710;SDS011;46554;48.138;8.420;2023-10-31T14:26:20;0.90;;;0.73;;
60710;SDS011;46554;48.138;8.420;2023-10-31T14:28:46;1.25;;;1.08;;
60710;SDS011;46554;48.138;8.420;2023-10-31T14:31:12;0.90;;;0.90;;
60710;SDS011;46554;48.138;8.420;2023-10-31T14:33:38;0.70;;;0.70;;
60710;SDS011;46554;48.138;8.420;2023-10-31T14:36:03;5.90;;;2.22;;
60710;SDS011;46554;48.138;8.420;2023-10-31T14:38:29;1.00;;;1.00;;
60710;SDS011;46554;48.138;8.420;2023-10-31T14:40:54;1.75;;;1.75;;
60710;SDS011;46554;48.138;8.420;2023-10-31T14:43:20;1.50;;;1.50;;
60710;SDS011;46554;48.138;8.420;2023-10-31T14:45:45;1.65;;;1.65;;
60710;SDS011;46554;48.138;8.420;2023-10-31T14:48:10;0.70;;;0.70;;
60710;SDS011;46554;48.138;8.420;2023-10-31T14:50:36;0.60;;;0.60;;
60710;SDS011;46554;48.138;8.420;2023-10-31T14:53:01;0.80;;;0.80;;
60710;SDS011;46554;48.138;8.420;2023-10-31T14:55:29;0.85;;;0.85;;
60710;SDS011;46554;48.138;8.420;2023-10-31T14:57:55;0.52;;;0.52;;
60710;SDS011;46554;48.138;8.420;2023-10-31T15:00:20;1.88;;;1.80;;
60710;SDS011;46554;48.138;8.420;2023-10-31T15:02:46;2.25;;;2.15;;
60710;SDS011;46554;48.138;8.420;2023-10-31T15:05:11;1.80;;;1.70;;
60710;SDS011;46554;48.138;8.420;2023-10-31T15:07:37;1.98;;;1.88;;